KJRB/JRB METAR and TAF weather

Enter ICAO airport designator
Station Type Date Time Source
KJRB METAR 2020/04/07 05:56 UTC NOAA

KJRB 070556Z AUTO 28003KT 10SM CLR 13/M07 A2999 RMK AO2 SLP155 T01331072 10167 20128 53003


Station Type Date Time Source
KJRB Decoded METAR 2020/04/07 05:56 UTC NOAA

Station name not available
Apr 07, 2020 - 01:56 AM EDT / 2020.04.07 0556 UTC
Wind: from the W (280 degrees) at 3 MPH (3 KT):0
Visibility: 10 mile(s):0
Sky conditions: clear
Temperature: 55.9 F (13.3 C)
Dew Point: 19.0 F (-7.2 C)
Relative Humidity: 23%
Pressure (altimeter): 29.99 in. Hg (1015 hPa)
Pressure tendency: 0.01 inches (0.3 hPa) higher than three hours ago
ob: KJRB 070556Z AUTO 28003KT 10SM CLR 13/M07 A2999 RMK AO2 SLP155 T01331072 10167 20128 53003
cycle: 6

Station Type Date Time Source
KJRB TAF UTC NOAA

Error!

Example: see airport list